createdAt,value
2017-08-19T00:01:22.000Z,57.1
2017-08-19T00:11:22.000Z,57.3
2017-08-19T00:21:23.000Z,57.2
2017-08-19T00:31:22.000Z,56.9
2017-08-19T00:41:22.000Z,56.8
2017-08-19T00:51:22.000Z,56.9
2017-08-19T01:01:22.000Z,56.6
2017-08-19T01:11:22.000Z,56.8
2017-08-19T01:21:22.000Z,56.8
2017-08-19T01:31:22.000Z,56.6
2017-08-19T01:41:22.000Z,56.9
2017-08-19T01:51:22.000Z,56.8
2017-08-19T02:01:22.000Z,56.4
2017-08-19T02:11:22.000Z,56.4
2017-08-19T02:21:22.000Z,56.5
2017-08-19T02:31:22.000Z,56.4
2017-08-19T02:41:22.000Z,56.2
2017-08-19T02:51:22.000Z,56
2017-08-19T03:01:22.000Z,55.9
2017-08-19T03:11:22.000Z,55.6
2017-08-19T03:21:22.000Z,55.6
2017-08-19T03:31:22.000Z,55.5
2017-08-19T03:41:22.000Z,55.5
2017-08-19T03:51:22.000Z,55.4
2017-08-19T04:01:22.000Z,55.3
2017-08-19T04:11:22.000Z,55.3
2017-08-19T04:21:22.000Z,55.3
2017-08-19T04:31:22.000Z,55.2
2017-08-19T04:41:22.000Z,55
2017-08-19T04:51:22.000Z,55.4
2017-08-19T05:01:22.000Z,55.1
2017-08-19T05:11:23.000Z,54.9
2017-08-19T05:21:23.000Z,54.9
2017-08-19T05:31:23.000Z,55
2017-08-19T05:41:23.000Z,55.2
2017-08-19T05:51:23.000Z,55.3
2017-08-19T06:01:23.000Z,55.4
2017-08-19T06:11:23.000Z,55.4
2017-08-19T06:21:23.000Z,55.7
2017-08-19T06:31:23.000Z,55
2017-08-19T06:41:23.000Z,55
2017-08-19T06:51:23.000Z,54.6
2017-08-19T07:01:23.000Z,54.4
2017-08-19T07:11:23.000Z,54.1
2017-08-19T07:21:23.000Z,54.1
2017-08-19T07:31:23.000Z,54.1
2017-08-19T07:41:23.000Z,54
2017-08-19T07:51:23.000Z,54.1
2017-08-19T08:01:23.000Z,54.3
2017-08-19T08:11:23.000Z,54
2017-08-19T08:21:23.000Z,54
2017-08-19T08:31:23.000Z,54
2017-08-19T08:41:23.000Z,54
2017-08-19T08:51:23.000Z,52.7
2017-08-19T09:01:23.000Z,53.4
2017-08-19T09:11:23.000Z,53.2
2017-08-19T09:21:23.000Z,53.7
2017-08-19T09:31:23.000Z,53
2017-08-19T09:41:23.000Z,52.5
2017-08-19T09:51:23.000Z,53.7
2017-08-19T10:01:23.000Z,53.2
2017-08-19T10:11:23.000Z,53.1
2017-08-19T10:21:24.000Z,53
2017-08-19T10:31:23.000Z,53
2017-08-19T10:41:23.000Z,51.9
2017-08-19T10:51:23.000Z,51.6
2017-08-19T11:01:23.000Z,51.4
2017-08-19T11:11:23.000Z,50.7
2017-08-19T11:21:23.000Z,50.2
2017-08-19T11:31:23.000Z,51.4
2017-08-19T11:41:23.000Z,49.9
2017-08-19T11:51:23.000Z,50.3
2017-08-19T12:01:23.000Z,50.2
2017-08-19T12:11:24.000Z,50.3
2017-08-19T12:21:24.000Z,49.6
2017-08-19T12:31:24.000Z,51.4
2017-08-19T12:41:24.000Z,50.1
2017-08-19T12:51:24.000Z,49.6
2017-08-19T13:01:24.000Z,50.1
2017-08-19T13:11:24.000Z,52
2017-08-19T13:21:24.000Z,52.5
2017-08-19T13:41:24.000Z,52.7
2017-08-19T13:51:24.000Z,52.3
2017-08-19T14:01:24.000Z,50.3
2017-08-19T14:11:25.000Z,48.9
2017-08-19T14:21:24.000Z,49.4
2017-08-19T14:31:25.000Z,53.4
2017-08-19T14:41:24.000Z,55
2017-08-19T14:51:24.000Z,54.5
2017-08-19T15:01:24.000Z,54.9
2017-08-19T15:11:24.000Z,53.4
2017-08-19T15:21:24.000Z,53.5
2017-08-19T15:31:24.000Z,52.5
2017-08-19T15:41:24.000Z,51.9
2017-08-19T15:51:24.000Z,52.1
2017-08-19T16:21:24.000Z,52.5
2017-08-19T16:31:24.000Z,50
2017-08-19T16:41:24.000Z,51.2
2017-08-19T16:51:24.000Z,51.2
2017-08-19T17:01:24.000Z,52
2017-08-19T17:11:24.000Z,52
2017-08-19T17:21:24.000Z,49.7
2017-08-19T17:41:24.000Z,52.1
2017-08-19T18:11:25.000Z,53.8
2017-08-19T18:21:25.000Z,54
2017-08-19T18:51:28.000Z,54
2017-08-19T19:01:25.000Z,54.2
2017-08-19T19:11:25.000Z,53.5
2017-08-19T19:21:25.000Z,54.2
2017-08-19T19:41:25.000Z,54.4
2017-08-19T20:01:25.000Z,54.8
2017-08-19T20:11:25.000Z,54.7
2017-08-19T20:31:25.000Z,54.8
2017-08-19T20:41:25.000Z,54.8
2017-08-19T20:51:25.000Z,54.9
2017-08-19T21:01:25.000Z,55.4
2017-08-19T21:11:25.000Z,55.6
2017-08-19T21:21:25.000Z,55.6
2017-08-19T21:31:25.000Z,55.3
2017-08-19T21:41:25.000Z,53.8
2017-08-19T21:51:25.000Z,53.5
2017-08-19T22:01:25.000Z,53.8
2017-08-19T22:11:25.000Z,54
2017-08-19T22:21:25.000Z,54
2017-08-19T22:31:25.000Z,54.4
2017-08-19T22:41:25.000Z,54.4
2017-08-19T22:51:25.000Z,54.3
2017-08-19T23:01:25.000Z,54.4
2017-08-19T23:11:25.000Z,54.4
2017-08-19T23:21:25.000Z,54.4
2017-08-19T23:31:25.000Z,54.6
2017-08-19T23:41:25.000Z,54.8
2017-08-19T23:51:25.000Z,54.4
